sensor_id;sensor_type;location;lat;lon;timestamp;P1;durP1;ratioP1;P2;durP2;ratioP2
51957;SDS011;41120;51.820;20.804;2023-01-13T00:03:26;14.98;;;6.75;;
51957;SDS011;41120;51.820;20.804;2023-01-13T00:05:53;15.73;;;6.47;;
51957;SDS011;41120;51.820;20.804;2023-01-13T00:08:19;17.93;;;7.13;;
51957;SDS011;41120;51.820;20.804;2023-01-13T00:10:46;14.65;;;6.45;;
51957;SDS011;41120;51.820;20.804;2023-01-13T00:13:13;20.85;;;6.88;;
51957;SDS011;41120;51.820;20.804;2023-01-13T00:15:39;16.08;;;6.78;;
51957;SDS011;41120;51.820;20.804;2023-01-13T00:18:05;16.70;;;6.40;;
51957;SDS011;41120;51.820;20.804;2023-01-13T00:20:34;14.90;;;6.65;;
51957;SDS011;41120;51.820;20.804;2023-01-13T00:23:15;14.90;;;6.88;;
51957;SDS011;41120;51.820;20.804;2023-01-13T00:28:44;19.92;;;6.90;;
51957;SDS011;41120;51.820;20.804;2023-01-13T00:31:22;17.63;;;6.85;;
51957;SDS011;41120;51.820;20.804;2023-01-13T00:33:48;15.57;;;6.07;;
51957;SDS011;41120;51.820;20.804;2023-01-13T00:36:24;16.08;;;6.80;;
51957;SDS011;41120;51.820;20.804;2023-01-13T00:41:35;12.23;;;6.20;;
51957;SDS011;41120;51.820;20.804;2023-01-13T00:44:19;18.10;;;7.60;;
51957;SDS011;41120;51.820;20.804;2023-01-13T00:47:01;12.38;;;7.00;;
51957;SDS011;41120;51.820;20.804;2023-01-13T00:49:28;12.45;;;6.55;;
51957;SDS011;41120;51.820;20.804;2023-01-13T00:52:00;12.30;;;6.13;;
51957;SDS011;41120;51.820;20.804;2023-01-13T00:57:19;20.30;;;6.85;;
51957;SDS011;41120;51.820;20.804;2023-01-13T00:59:50;16.25;;;6.35;;
51957;SDS011;41120;51.820;20.804;2023-01-13T01:02:19;17.13;;;7.30;;
51957;SDS011;41120;51.820;20.804;2023-01-13T01:04:45;18.55;;;6.70;;
51957;SDS011;41120;51.820;20.804;2023-01-13T01:07:15;16.13;;;6.65;;
51957;SDS011;41120;51.820;20.804;2023-01-13T01:09:42;14.60;;;6.13;;
51957;SDS011;41120;51.820;20.804;2023-01-13T01:12:15;16.10;;;6.72;;
51957;SDS011;41120;51.820;20.804;2023-01-13T01:17:10;15.05;;;6.60;;
51957;SDS011;41120;51.820;20.804;2023-01-13T01:19:42;15.63;;;5.85;;
51957;SDS011;41120;51.820;20.804;2023-01-13T01:22:15;13.90;;;6.93;;
51957;SDS011;41120;51.820;20.804;2023-01-13T01:27:09;18.05;;;6.70;;
51957;SDS011;41120;51.820;20.804;2023-01-13T01:29:42;13.32;;;6.20;;
51957;SDS011;41120;51.820;20.804;2023-01-13T01:37:30;18.08;;;6.72;;
51957;SDS011;41120;51.820;20.804;2023-01-13T01:40:02;16.70;;;6.95;;
51957;SDS011;41120;51.820;20.804;2023-01-13T01:51:15;14.38;;;6.82;;
51957;SDS011;41120;51.820;20.804;2023-01-13T01:53:48;15.43;;;6.18;;
51957;SDS011;41120;51.820;20.804;2023-01-13T02:04:24;14.43;;;6.50;;
51957;SDS011;41120;51.820;20.804;2023-01-13T02:07:03;16.33;;;6.55;;
51957;SDS011;41120;51.820;20.804;2023-01-13T02:09:42;17.15;;;7.18;;
51957;SDS011;41120;51.820;20.804;2023-01-13T02:12:17;14.00;;;6.55;;
51957;SDS011;41120;51.820;20.804;2023-01-13T02:15:15;12.68;;;6.65;;
51957;SDS011;41120;51.820;20.804;2023-01-13T02:44:24;16.83;;;6.75;;
51957;SDS011;41120;51.820;20.804;2023-01-13T02:55:52;17.30;;;7.20;;
51957;SDS011;41120;51.820;20.804;2023-01-13T02:58:25;17.17;;;6.40;;
51957;SDS011;41120;51.820;20.804;2023-01-13T03:01:02;12.43;;;5.53;;
51957;SDS011;41120;51.820;20.804;2023-01-13T03:03:29;12.57;;;6.10;;
51957;SDS011;41120;51.820;20.804;2023-01-13T03:06:08;11.73;;;6.10;;
51957;SDS011;41120;51.820;20.804;2023-01-13T03:09:16;12.70;;;5.72;;
51957;SDS011;41120;51.820;20.804;2023-01-13T03:24:03;15.18;;;6.38;;
51957;SDS011;41120;51.820;20.804;2023-01-13T03:34:46;13.40;;;5.97;;
51957;SDS011;41120;51.820;20.804;2023-01-13T03:37:22;18.42;;;6.13;;
51957;SDS011;41120;51.820;20.804;2023-01-13T03:48:49;11.98;;;5.30;;
51957;SDS011;41120;51.820;20.804;2023-01-13T03:54:10;13.95;;;5.68;;
51957;SDS011;41120;51.820;20.804;2023-01-13T03:56:40;12.30;;;5.90;;
51957;SDS011;41120;51.820;20.804;2023-01-13T03:59:19;13.82;;;6.15;;
51957;SDS011;41120;51.820;20.804;2023-01-13T04:07:32;25.10;;;11.13;;
51957;SDS011;41120;51.820;20.804;2023-01-13T04:10:06;60.85;;;24.40;;
51957;SDS011;41120;51.820;20.804;2023-01-13T04:12:50;30.85;;;13.23;;
51957;SDS011;41120;51.820;20.804;2023-01-13T04:20:57;12.52;;;5.10;;
51957;SDS011;41120;51.820;20.804;2023-01-13T04:29:05;15.70;;;6.35;;
51957;SDS011;41120;51.820;20.804;2023-01-13T04:34:12;15.75;;;6.15;;
51957;SDS011;41120;51.820;20.804;2023-01-13T04:36:39;14.90;;;4.93;;
51957;SDS011;41120;51.820;20.804;2023-01-13T04:39:05;10.68;;;4.82;;
51957;SDS011;41120;51.820;20.804;2023-01-13T04:41:40;12.50;;;4.30;;
51957;SDS011;41120;51.820;20.804;2023-01-13T04:44:24;10.73;;;5.43;;
51957;SDS011;41120;51.820;20.804;2023-01-13T04:55:27;10.23;;;5.50;;
51957;SDS011;41120;51.820;20.804;2023-01-13T05:00:35;9.75;;;4.90;;
51957;SDS011;41120;51.820;20.804;2023-01-13T05:03:14;11.85;;;4.60;;
51957;SDS011;41120;51.820;20.804;2023-01-13T05:08:34;11.18;;;5.10;;
51957;SDS011;41120;51.820;20.804;2023-01-13T05:14:27;8.52;;;4.60;;
51957;SDS011;41120;51.820;20.804;2023-01-13T05:17:27;11.50;;;4.57;;
51957;SDS011;41120;51.820;20.804;2023-01-13T05:22:44;14.63;;;5.85;;
51957;SDS011;41120;51.820;20.804;2023-01-13T05:25:47;10.88;;;5.45;;
51957;SDS011;41120;51.820;20.804;2023-01-13T05:30:46;10.90;;;5.22;;
51957;SDS011;41120;51.820;20.804;2023-01-13T05:33:31;11.73;;;5.57;;
51957;SDS011;41120;51.820;20.804;2023-01-13T05:36:03;11.93;;;4.95;;
51957;SDS011;41120;51.820;20.804;2023-01-13T05:38:37;12.68;;;6.03;;
51957;SDS011;41120;51.820;20.804;2023-01-13T05:41:10;11.02;;;5.63;;
51957;SDS011;41120;51.820;20.804;2023-01-13T05:44:08;10.43;;;4.10;;
51957;SDS011;41120;51.820;20.804;2023-01-13T05:57:31;11.55;;;5.60;;
51957;SDS011;41120;51.820;20.804;2023-01-13T05:59:59;13.43;;;5.38;;
51957;SDS011;41120;51.820;20.804;2023-01-13T06:02:27;10.02;;;4.57;;
51957;SDS011;41120;51.820;20.804;2023-01-13T06:07:42;7.95;;;4.18;;
51957;SDS011;41120;51.820;20.804;2023-01-13T06:10:10;9.05;;;3.88;;
51957;SDS011;41120;51.820;20.804;2023-01-13T06:12:45;10.30;;;4.10;;
51957;SDS011;41120;51.820;20.804;2023-01-13T06:15:15;8.82;;;4.15;;
51957;SDS011;41120;51.820;20.804;2023-01-13T06:17:41;10.50;;;4.80;;
51957;SDS011;41120;51.820;20.804;2023-01-13T06:20:08;7.10;;;3.28;;
51957;SDS011;41120;51.820;20.804;2023-01-13T06:22:37;9.13;;;3.90;;
51957;SDS011;41120;51.820;20.804;2023-01-13T06:25:20;9.88;;;4.43;;
51957;SDS011;41120;51.820;20.804;2023-01-13T06:27:58;8.88;;;4.75;;
51957;SDS011;41120;51.820;20.804;2023-01-13T06:30:59;9.10;;;4.90;;
51957;SDS011;41120;51.820;20.804;2023-01-13T06:33:22;5.88;;;3.63;;
51957;SDS011;41120;51.820;20.804;2023-01-13T06:38:28;13.20;;;5.35;;
51957;SDS011;41120;51.820;20.804;2023-01-13T06:41:06;11.93;;;4.22;;
51957;SDS011;41120;51.820;20.804;2023-01-13T06:43:35;16.48;;;6.68;;
51957;SDS011;41120;51.820;20.804;2023-01-13T06:46:08;12.32;;;4.80;;
51957;SDS011;41120;51.820;20.804;2023-01-13T06:48:35;14.48;;;6.15;;
51957;SDS011;41120;51.820;20.804;2023-01-13T06:51:04;15.27;;;6.20;;
51957;SDS011;41120;51.820;20.804;2023-01-13T06:53:32;40.42;;;17.23;;
51957;SDS011;41120;51.820;20.804;2023-01-13T06:56:00;18.90;;;8.27;;
51957;SDS011;41120;51.820;20.804;2023-01-13T06:58:27;43.83;;;22.55;;
51957;SDS011;41120;51.820;20.804;2023-01-13T07:00:58;11.60;;;6.30;;
51957;SDS011;41120;51.820;20.804;2023-01-13T07:03:24;12.73;;;7.07;;
51957;SDS011;41120;51.820;20.804;2023-01-13T07:05:52;10.30;;;4.67;;
51957;SDS011;41120;51.820;20.804;2023-01-13T07:08:21;9.88;;;3.97;;
51957;SDS011;41120;51.820;20.804;2023-01-13T07:13:43;9.20;;;4.35;;
51957;SDS011;41120;51.820;20.804;2023-01-13T07:19:40;9.05;;;3.85;;
51957;SDS011;41120;51.820;20.804;2023-01-13T07:22:07;9.35;;;5.07;;
51957;SDS011;41120;51.820;20.804;2023-01-13T07:24:33;7.07;;;4.05;;
51957;SDS011;41120;51.820;20.804;2023-01-13T07:26:59;10.48;;;5.30;;
51957;SDS011;41120;51.820;20.804;2023-01-13T07:29:28;7.38;;;4.30;;
51957;SDS011;41120;51.820;20.804;2023-01-13T07:31:54;8.48;;;4.68;;
51957;SDS011;41120;51.820;20.804;2023-01-13T07:34:23;10.02;;;5.10;;
51957;SDS011;41120;51.820;20.804;2023-01-13T07:36:49;8.02;;;4.85;;
51957;SDS011;41120;51.820;20.804;2023-01-13T07:39:16;8.68;;;4.68;;
51957;SDS011;41120;51.820;20.804;2023-01-13T07:41:42;7.30;;;4.40;;
51957;SDS011;41120;51.820;20.804;2023-01-13T07:44:28;8.77;;;4.40;;
51957;SDS011;41120;51.820;20.804;2023-01-13T07:46:56;9.30;;;4.35;;
51957;SDS011;41120;51.820;20.804;2023-01-13T07:49:22;8.87;;;4.10;;
51957;SDS011;41120;51.820;20.804;2023-01-13T07:51:49;7.72;;;3.63;;
51957;SDS011;41120;51.820;20.804;2023-01-13T07:54:20;7.27;;;4.60;;
51957;SDS011;41120;51.820;20.804;2023-01-13T07:56:46;7.45;;;4.70;;
51957;SDS011;41120;51.820;20.804;2023-01-13T07:59:12;7.93;;;4.20;;
51957;SDS011;41120;51.820;20.804;2023-01-13T08:01:39;11.27;;;5.63;;
51957;SDS011;41120;51.820;20.804;2023-01-13T08:04:14;8.82;;;4.63;;
51957;SDS011;41120;51.820;20.804;2023-01-13T08:06:47;8.43;;;4.67;;
51957;SDS011;41120;51.820;20.804;2023-01-13T08:09:15;11.02;;;4.28;;
51957;SDS011;41120;51.820;20.804;2023-01-13T08:14:36;8.38;;;4.10;;
51957;SDS011;41120;51.820;20.804;2023-01-13T08:17:11;7.68;;;3.60;;
51957;SDS011;41120;51.820;20.804;2023-01-13T08:19:38;7.88;;;4.25;;
51957;SDS011;41120;51.820;20.804;2023-01-13T08:22:04;9.73;;;4.17;;
51957;SDS011;41120;51.820;20.804;2023-01-13T08:24:30;7.23;;;4.07;;
51957;SDS011;41120;51.820;20.804;2023-01-13T08:29:55;7.53;;;4.17;;
51957;SDS011;41120;51.820;20.804;2023-01-13T08:32:22;7.90;;;4.60;;
51957;SDS011;41120;51.820;20.804;2023-01-13T08:34:50;7.87;;;4.47;;
51957;SDS011;41120;51.820;20.804;2023-01-13T08:42:39;7.72;;;3.95;;
51957;SDS011;41120;51.820;20.804;2023-01-13T08:45:05;7.27;;;3.93;;
51957;SDS011;41120;51.820;20.804;2023-01-13T08:47:42;10.87;;;4.73;;
51957;SDS011;41120;51.820;20.804;2023-01-13T08:50:10;6.60;;;4.30;;
51957;SDS011;41120;51.820;20.804;2023-01-13T08:52:37;7.17;;;3.83;;
51957;SDS011;41120;51.820;20.804;2023-01-13T08:55:11;10.27;;;4.20;;
51957;SDS011;41120;51.820;20.804;2023-01-13T09:01:14;7.70;;;4.17;;
51957;SDS011;41120;51.820;20.804;2023-01-13T09:06:59;6.57;;;4.00;;
51957;SDS011;41120;51.820;20.804;2023-01-13T09:09:45;9.33;;;4.47;;
51957;SDS011;41120;51.820;20.804;2023-01-13T09:12:13;7.93;;;4.30;;
51957;SDS011;41120;51.820;20.804;2023-01-13T09:14:59;8.33;;;4.00;;
51957;SDS011;41120;51.820;20.804;2023-01-13T09:17:34;6.57;;;3.87;;
51957;SDS011;41120;51.820;20.804;2023-01-13T09:20:00;10.67;;;4.57;;
51957;SDS011;41120;51.820;20.804;2023-01-13T09:22:33;7.60;;;4.13;;
51957;SDS011;41120;51.820;20.804;2023-01-13T09:25:07;7.97;;;4.10;;
51957;SDS011;41120;51.820;20.804;2023-01-13T09:27:33;7.10;;;4.23;;
51957;SDS011;41120;51.820;20.804;2023-01-13T09:30:05;8.50;;;4.60;;
51957;SDS011;41120;51.820;20.804;2023-01-13T09:35:50;12.50;;;6.33;;
51957;SDS011;41120;51.820;20.804;2023-01-13T09:38:30;8.77;;;4.57;;
51957;SDS011;41120;51.820;20.804;2023-01-13T09:43:30;6.93;;;4.50;;
51957;SDS011;41120;51.820;20.804;2023-01-13T09:46:33;8.50;;;4.20;;
51957;SDS011;41120;51.820;20.804;2023-01-13T09:52:01;8.73;;;4.50;;
51957;SDS011;41120;51.820;20.804;2023-01-13T09:54:44;8.77;;;4.77;;
51957;SDS011;41120;51.820;20.804;2023-01-13T09:57:36;12.13;;;5.10;;
51957;SDS011;41120;51.820;20.804;2023-01-13T10:08:40;8.97;;;4.70;;
51957;SDS011;41120;51.820;20.804;2023-01-13T10:29:42;8.63;;;5.00;;
51957;SDS011;41120;51.820;20.804;2023-01-13T10:37:41;13.90;;;6.67;;
51957;SDS011;41120;51.820;20.804;2023-01-13T10:40:25;10.63;;;5.60;;
51957;SDS011;41120;51.820;20.804;2023-01-13T10:51:49;9.97;;;5.67;;
51957;SDS011;41120;51.820;20.804;2023-01-13T11:06:50;11.17;;;6.03;;
51957;SDS011;41120;51.820;20.804;2023-01-13T11:15:03;10.63;;;5.60;;
51957;SDS011;41120;51.820;20.804;2023-01-13T11:20:20;8.50;;;5.10;;
51957;SDS011;41120;51.820;20.804;2023-01-13T11:22:56;8.57;;;5.27;;
51957;SDS011;41120;51.820;20.804;2023-01-13T11:25:25;9.50;;;5.50;;
51957;SDS011;41120;51.820;20.804;2023-01-13T11:28:17;9.27;;;5.30;;
51957;SDS011;41120;51.820;20.804;2023-01-13T11:36:45;8.40;;;5.00;;
51957;SDS011;41120;51.820;20.804;2023-01-13T11:47:59;9.20;;;4.93;;
51957;SDS011;41120;51.820;20.804;2023-01-13T12:02:46;7.77;;;4.70;;
51957;SDS011;41120;51.820;20.804;2023-01-13T12:08:49;6.77;;;4.07;;
51957;SDS011;41120;51.820;20.804;2023-01-13T12:18:16;8.37;;;4.60;;
51957;SDS011;41120;51.820;20.804;2023-01-13T12:21:27;7.13;;;4.10;;
51957;SDS011;41120;51.820;20.804;2023-01-13T12:32:51;7.68;;;3.60;;
51957;SDS011;41120;51.820;20.804;2023-01-13T12:46:53;9.63;;;4.73;;
51957;SDS011;41120;51.820;20.804;2023-01-13T12:49:33;8.43;;;4.10;;
51957;SDS011;41120;51.820;20.804;2023-01-13T13:04:06;7.63;;;4.37;;
51957;SDS011;41120;51.820;20.804;2023-01-13T13:06:36;5.73;;;3.73;;
51957;SDS011;41120;51.820;20.804;2023-01-13T13:15:32;8.13;;;4.40;;
51957;SDS011;41120;51.820;20.804;2023-01-13T13:26:35;7.88;;;4.07;;
51957;SDS011;41120;51.820;20.804;2023-01-13T13:41:51;7.47;;;4.40;;
51957;SDS011;41120;51.820;20.804;2023-01-13T13:44:44;8.57;;;3.70;;
51957;SDS011;41120;51.820;20.804;2023-01-13T13:47:37;7.90;;;4.00;;
51957;SDS011;41120;51.820;20.804;2023-01-13T13:55:27;9.00;;;4.03;;
51957;SDS011;41120;51.820;20.804;2023-01-13T14:08:42;7.07;;;4.23;;
51957;SDS011;41120;51.820;20.804;2023-01-13T14:14:15;6.03;;;4.10;;
51957;SDS011;41120;51.820;20.804;2023-01-13T14:16:45;8.50;;;3.73;;
51957;SDS011;41120;51.820;20.804;2023-01-13T14:22:04;8.57;;;4.07;;
51957;SDS011;41120;51.820;20.804;2023-01-13T14:24:32;7.87;;;4.13;;
51957;SDS011;41120;51.820;20.804;2023-01-13T14:27:16;8.10;;;4.20;;
51957;SDS011;41120;51.820;20.804;2023-01-13T14:29:57;7.07;;;3.80;;
51957;SDS011;41120;51.820;20.804;2023-01-13T14:32:33;8.37;;;4.07;;
51957;SDS011;41120;51.820;20.804;2023-01-13T14:38:02;12.40;;;4.90;;
51957;SDS011;41120;51.820;20.804;2023-01-13T14:40:38;8.07;;;4.63;;
51957;SDS011;41120;51.820;20.804;2023-01-13T14:43:11;10.73;;;5.03;;
51957;SDS011;41120;51.820;20.804;2023-01-13T14:45:42;10.57;;;5.18;;
51957;SDS011;41120;51.820;20.804;2023-01-13T14:48:20;9.90;;;5.50;;
51957;SDS011;41120;51.820;20.804;2023-01-13T14:50:53;11.20;;;4.72;;
51957;SDS011;41120;51.820;20.804;2023-01-13T14:53:25;8.60;;;4.67;;
51957;SDS011;41120;51.820;20.804;2023-01-13T15:08:04;9.33;;;4.77;;
51957;SDS011;41120;51.820;20.804;2023-01-13T15:10:57;7.50;;;4.90;;
51957;SDS011;41120;51.820;20.804;2023-01-13T15:16:32;8.77;;;4.70;;
51957;SDS011;41120;51.820;20.804;2023-01-13T15:19:07;8.73;;;4.90;;
51957;SDS011;41120;51.820;20.804;2023-01-13T15:21:35;7.93;;;4.67;;
51957;SDS011;41120;51.820;20.804;2023-01-13T15:24:16;9.67;;;5.40;;
51957;SDS011;41120;51.820;20.804;2023-01-13T15:26:48;9.47;;;4.73;;
51957;SDS011;41120;51.820;20.804;2023-01-13T15:29:32;8.83;;;5.30;;
51957;SDS011;41120;51.820;20.804;2023-01-13T15:32:04;10.37;;;5.37;;
51957;SDS011;41120;51.820;20.804;2023-01-13T15:34:32;9.27;;;5.07;;
51957;SDS011;41120;51.820;20.804;2023-01-13T15:37:06;10.53;;;5.90;;
51957;SDS011;41120;51.820;20.804;2023-01-13T15:39:35;11.83;;;6.07;;
51957;SDS011;41120;51.820;20.804;2023-01-13T15:42:05;12.87;;;6.23;;
51957;SDS011;41120;51.820;20.804;2023-01-13T15:44:50;14.80;;;6.37;;
51957;SDS011;41120;51.820;20.804;2023-01-13T15:47:41;13.50;;;7.00;;
51957;SDS011;41120;51.820;20.804;2023-01-13T15:50:12;14.43;;;8.63;;
51957;SDS011;41120;51.820;20.804;2023-01-13T15:52:40;17.95;;;10.40;;
51957;SDS011;41120;51.820;20.804;2023-01-13T15:55:11;16.93;;;8.47;;
51957;SDS011;41120;51.820;20.804;2023-01-13T15:57:38;26.70;;;15.57;;
51957;SDS011;41120;51.820;20.804;2023-01-13T16:00:12;14.57;;;8.45;;
51957;SDS011;41120;51.820;20.804;2023-01-13T16:02:43;37.97;;;20.37;;
51957;SDS011;41120;51.820;20.804;2023-01-13T16:05:16;16.93;;;9.57;;
51957;SDS011;41120;51.820;20.804;2023-01-13T16:07:45;16.30;;;8.20;;
51957;SDS011;41120;51.820;20.804;2023-01-13T16:10:17;14.93;;;7.00;;
51957;SDS011;41120;51.820;20.804;2023-01-13T16:12:47;13.10;;;7.10;;
51957;SDS011;41120;51.820;20.804;2023-01-13T16:15:18;13.73;;;7.17;;
51957;SDS011;41120;51.820;20.804;2023-01-13T16:18:00;11.60;;;6.57;;
51957;SDS011;41120;51.820;20.804;2023-01-13T16:20:34;16.60;;;7.70;;
51957;SDS011;41120;51.820;20.804;2023-01-13T16:23:01;13.20;;;7.17;;
51957;SDS011;41120;51.820;20.804;2023-01-13T16:25:28;11.43;;;6.80;;
51957;SDS011;41120;51.820;20.804;2023-01-13T16:27:54;12.10;;;6.73;;
51957;SDS011;41120;51.820;20.804;2023-01-13T16:30:25;12.33;;;6.90;;
51957;SDS011;41120;51.820;20.804;2023-01-13T16:32:55;13.80;;;7.50;;
51957;SDS011;41120;51.820;20.804;2023-01-13T16:35:25;11.90;;;6.43;;
51957;SDS011;41120;51.820;20.804;2023-01-13T16:37:55;14.50;;;6.90;;
51957;SDS011;41120;51.820;20.804;2023-01-13T16:40:25;14.60;;;7.90;;
51957;SDS011;41120;51.820;20.804;2023-01-13T16:45:31;16.92;;;8.10;;
51957;SDS011;41120;51.820;20.804;2023-01-13T16:48:00;15.47;;;8.00;;
51957;SDS011;41120;51.820;20.804;2023-01-13T16:55:52;13.80;;;7.73;;
51957;SDS011;41120;51.820;20.804;2023-01-13T16:58:28;16.17;;;8.10;;
51957;SDS011;41120;51.820;20.804;2023-01-13T17:01:02;19.40;;;9.30;;
51957;SDS011;41120;51.820;20.804;2023-01-13T17:03:38;15.07;;;8.20;;
51957;SDS011;41120;51.820;20.804;2023-01-13T17:06:07;17.37;;;8.97;;
51957;SDS011;41120;51.820;20.804;2023-01-13T17:08:44;16.80;;;9.60;;
51957;SDS011;41120;51.820;20.804;2023-01-13T17:11:13;18.30;;;9.83;;
51957;SDS011;41120;51.820;20.804;2023-01-13T17:13:40;18.70;;;10.67;;
51957;SDS011;41120;51.820;20.804;2023-01-13T17:16:14;19.00;;;10.80;;
51957;SDS011;41120;51.820;20.804;2023-01-13T17:18:43;15.67;;;9.40;;
51957;SDS011;41120;51.820;20.804;2023-01-13T17:21:10;17.50;;;9.37;;
51957;SDS011;41120;51.820;20.804;2023-01-13T17:23:44;16.80;;;8.57;;
51957;SDS011;41120;51.820;20.804;2023-01-13T17:28:59;15.40;;;7.73;;
51957;SDS011;41120;51.820;20.804;2023-01-13T17:31:26;15.73;;;7.93;;
51957;SDS011;41120;51.820;20.804;2023-01-13T17:33:57;18.27;;;8.00;;
51957;SDS011;41120;51.820;20.804;2023-01-13T17:36:23;19.53;;;8.63;;
51957;SDS011;41120;51.820;20.804;2023-01-13T17:38:50;19.13;;;9.70;;
51957;SDS011;41120;51.820;20.804;2023-01-13T17:41:18;17.10;;;9.67;;
51957;SDS011;41120;51.820;20.804;2023-01-13T17:43:45;19.50;;;10.27;;
51957;SDS011;41120;51.820;20.804;2023-01-13T17:46:12;19.83;;;10.60;;
51957;SDS011;41120;51.820;20.804;2023-01-13T17:48:43;16.70;;;9.67;;
51957;SDS011;41120;51.820;20.804;2023-01-13T17:51:15;17.30;;;10.47;;
51957;SDS011;41120;51.820;20.804;2023-01-13T17:53:48;18.27;;;9.43;;
51957;SDS011;41120;51.820;20.804;2023-01-13T17:56:15;16.10;;;9.27;;
51957;SDS011;41120;51.820;20.804;2023-01-13T17:58:50;24.23;;;11.63;;
51957;SDS011;41120;51.820;20.804;2023-01-13T18:01:18;14.80;;;7.77;;
51957;SDS011;41120;51.820;20.804;2023-01-13T18:03:45;16.07;;;8.60;;
51957;SDS011;41120;51.820;20.804;2023-01-13T18:06:16;21.60;;;10.00;;
51957;SDS011;41120;51.820;20.804;2023-01-13T18:11:25;18.33;;;8.73;;
51957;SDS011;41120;51.820;20.804;2023-01-13T18:13:53;12.57;;;6.63;;
51957;SDS011;41120;51.820;20.804;2023-01-13T18:16:23;16.20;;;6.37;;
51957;SDS011;41120;51.820;20.804;2023-01-13T18:18:50;13.70;;;6.03;;
51957;SDS011;41120;51.820;20.804;2023-01-13T18:24:15;11.00;;;6.23;;
51957;SDS011;41120;51.820;20.804;2023-01-13T18:27:10;11.80;;;6.10;;
51957;SDS011;41120;51.820;20.804;2023-01-13T18:29:51;9.73;;;5.70;;
51957;SDS011;41120;51.820;20.804;2023-01-13T18:35:04;15.80;;;6.13;;
51957;SDS011;41120;51.820;20.804;2023-01-13T18:37:42;12.47;;;5.40;;
51957;SDS011;41120;51.820;20.804;2023-01-13T18:42:37;13.30;;;6.67;;
51957;SDS011;41120;51.820;20.804;2023-01-13T18:45:20;15.50;;;6.72;;
51957;SDS011;41120;51.820;20.804;2023-01-13T18:47:52;13.38;;;6.03;;
51957;SDS011;41120;51.820;20.804;2023-01-13T18:50:21;11.63;;;6.37;;
51957;SDS011;41120;51.820;20.804;2023-01-13T18:52:50;14.03;;;7.00;;
51957;SDS011;41120;51.820;20.804;2023-01-13T18:55:16;97.27;;;38.23;;
51957;SDS011;41120;51.820;20.804;2023-01-13T18:57:43;43.67;;;20.40;;
51957;SDS011;41120;51.820;20.804;2023-01-13T19:00:13;47.03;;;22.23;;
51957;SDS011;41120;51.820;20.804;2023-01-13T19:02:42;32.90;;;16.85;;
51957;SDS011;41120;51.820;20.804;2023-01-13T19:05:09;58.13;;;26.47;;
51957;SDS011;41120;51.820;20.804;2023-01-13T19:07:37;59.00;;;27.47;;
51957;SDS011;41120;51.820;20.804;2023-01-13T19:10:04;72.00;;;32.57;;
51957;SDS011;41120;51.820;20.804;2023-01-13T19:12:36;41.53;;;20.63;;
51957;SDS011;41120;51.820;20.804;2023-01-13T19:15:02;37.03;;;18.53;;
51957;SDS011;41120;51.820;20.804;2023-01-13T19:17:30;71.97;;;36.37;;
51957;SDS011;41120;51.820;20.804;2023-01-13T19:20:01;42.60;;;21.93;;
51957;SDS011;41120;51.820;20.804;2023-01-13T19:22:31;40.10;;;21.37;;
51957;SDS011;41120;51.820;20.804;2023-01-13T19:27:32;21.63;;;12.87;;
51957;SDS011;41120;51.820;20.804;2023-01-13T19:29:58;11.23;;;6.97;;
51957;SDS011;41120;51.820;20.804;2023-01-13T19:32:31;15.33;;;8.00;;
51957;SDS011;41120;51.820;20.804;2023-01-13T19:34:59;14.00;;;9.07;;
51957;SDS011;41120;51.820;20.804;2023-01-13T19:37:28;14.27;;;8.53;;
51957;SDS011;41120;51.820;20.804;2023-01-13T19:40:13;12.95;;;8.27;;
51957;SDS011;41120;51.820;20.804;2023-01-13T19:42:41;13.47;;;8.40;;
51957;SDS011;41120;51.820;20.804;2023-01-13T19:45:27;18.67;;;10.57;;
51957;SDS011;41120;51.820;20.804;2023-01-13T19:48:04;13.67;;;7.53;;
51957;SDS011;41120;51.820;20.804;2023-01-13T19:53:06;14.37;;;8.07;;
51957;SDS011;41120;51.820;20.804;2023-01-13T19:55:42;16.30;;;10.00;;
51957;SDS011;41120;51.820;20.804;2023-01-13T19:58:14;11.40;;;6.60;;
51957;SDS011;41120;51.820;20.804;2023-01-13T20:00:56;14.47;;;7.90;;
51957;SDS011;41120;51.820;20.804;2023-01-13T20:03:24;22.27;;;11.63;;
51957;SDS011;41120;51.820;20.804;2023-01-13T20:09:06;14.10;;;9.20;;
51957;SDS011;41120;51.820;20.804;2023-01-13T20:14:30;12.77;;;7.80;;
51957;SDS011;41120;51.820;20.804;2023-01-13T20:17:06;13.07;;;7.43;;
51957;SDS011;41120;51.820;20.804;2023-01-13T20:19:46;18.03;;;9.93;;
51957;SDS011;41120;51.820;20.804;2023-01-13T20:25:12;14.53;;;8.40;;
51957;SDS011;41120;51.820;20.804;2023-01-13T20:27:55;13.73;;;9.23;;
51957;SDS011;41120;51.820;20.804;2023-01-13T20:30:24;18.27;;;10.55;;
51957;SDS011;41120;51.820;20.804;2023-01-13T20:32:51;14.27;;;9.00;;
51957;SDS011;41120;51.820;20.804;2023-01-13T20:35:30;12.90;;;9.10;;
51957;SDS011;41120;51.820;20.804;2023-01-13T20:38:02;11.73;;;7.83;;
51957;SDS011;41120;51.820;20.804;2023-01-13T20:40:29;13.97;;;7.57;;
51957;SDS011;41120;51.820;20.804;2023-01-13T20:43:05;13.57;;;7.60;;
51957;SDS011;41120;51.820;20.804;2023-01-13T20:45:31;11.97;;;8.17;;
51957;SDS011;41120;51.820;20.804;2023-01-13T20:48:04;12.63;;;8.23;;
51957;SDS011;41120;51.820;20.804;2023-01-13T20:50:31;18.98;;;9.43;;
51957;SDS011;41120;51.820;20.804;2023-01-13T20:53:14;12.27;;;8.13;;
51957;SDS011;41120;51.820;20.804;2023-01-13T20:55:48;12.13;;;8.07;;
51957;SDS011;41120;51.820;20.804;2023-01-13T20:58:16;11.70;;;7.27;;
51957;SDS011;41120;51.820;20.804;2023-01-13T21:03:26;14.53;;;7.90;;
51957;SDS011;41120;51.820;20.804;2023-01-13T21:05:53;11.30;;;7.33;;
51957;SDS011;41120;51.820;20.804;2023-01-13T21:08:30;12.27;;;7.73;;
51957;SDS011;41120;51.820;20.804;2023-01-13T21:17:30;11.33;;;7.23;;
51957;SDS011;41120;51.820;20.804;2023-01-13T21:23:18;13.47;;;7.67;;
51957;SDS011;41120;51.820;20.804;2023-01-13T21:34:45;15.70;;;8.93;;
51957;SDS011;41120;51.820;20.804;2023-01-13T21:39:50;15.10;;;8.40;;
51957;SDS011;41120;51.820;20.804;2023-01-13T21:48:18;14.10;;;9.03;;
51957;SDS011;41120;51.820;20.804;2023-01-13T21:50:44;14.67;;;9.20;;
51957;SDS011;41120;51.820;20.804;2023-01-13T21:56:51;15.50;;;9.67;;
51957;SDS011;41120;51.820;20.804;2023-01-13T21:59:23;17.27;;;10.68;;
51957;SDS011;41120;51.820;20.804;2023-01-13T22:01:59;16.05;;;10.15;;
51957;SDS011;41120;51.820;20.804;2023-01-13T22:04:50;18.08;;;10.77;;
51957;SDS011;41120;51.820;20.804;2023-01-13T22:10:31;17.20;;;10.20;;
51957;SDS011;41120;51.820;20.804;2023-01-13T22:12:59;14.68;;;10.10;;
51957;SDS011;41120;51.820;20.804;2023-01-13T22:15:49;15.30;;;10.20;;
51957;SDS011;41120;51.820;20.804;2023-01-13T22:18:23;17.65;;;10.63;;
51957;SDS011;41120;51.820;20.804;2023-01-13T22:26:40;19.58;;;11.82;;
51957;SDS011;41120;51.820;20.804;2023-01-13T22:29:16;18.70;;;11.40;;
51957;SDS011;41120;51.820;20.804;2023-01-13T22:34:59;19.30;;;12.57;;
51957;SDS011;41120;51.820;20.804;2023-01-13T22:37:32;20.08;;;12.75;;
51957;SDS011;41120;51.820;20.804;2023-01-13T22:42:35;19.00;;;12.43;;
51957;SDS011;41120;51.820;20.804;2023-01-13T22:45:21;21.52;;;12.27;;
51957;SDS011;41120;51.820;20.804;2023-01-13T22:53:58;22.40;;;13.85;;
51957;SDS011;41120;51.820;20.804;2023-01-13T23:02:48;20.85;;;13.30;;
51957;SDS011;41120;51.820;20.804;2023-01-13T23:05:17;18.05;;;12.70;;
51957;SDS011;41120;51.820;20.804;2023-01-13T23:10:29;20.65;;;12.70;;